Angier, North Carolina
Current Conditions -  °F | °C
As of 7:35 AM on Saturday 20 Dec 2014 (Local Time) from KHRJ Reporting Station
Overcast Overcast  
Wind Chill: 32°   Ceiling: 7500
Heat Index: 38°   Visibility: 10mi
Dew Point: 32°   Wind: 8mph
Humidity: 78%   Direction: 40°NE
Pressure: 30.27"   Gusts: NA
Location:  35.51°N, 78.74°W
Report Text: KHRJ 201235Z AUTO 04007KT 10SM OVC075 04/00 A3027 RMK AO2 T00350000
Loading
Personal Weather Stations






























Interactive Weather Map New forecast layout! Learn more

10-Day Weather Forecast

Advertisements
Track Severe Weather on mobile